sensor_id;sensor_type;location;lat;lon;timestamp;P1;durP1;ratioP1;P2;durP2;ratioP2
10717;SDS011;13513;42.700;23.124;2023-07-16T00:00:45;11.35;;;9.53;;
10717;SDS011;13513;42.700;23.124;2023-07-16T00:03:13;12.65;;;9.93;;
10717;SDS011;13513;42.700;23.124;2023-07-16T00:05:40;12.35;;;10.43;;
10717;SDS011;13513;42.700;23.124;2023-07-16T00:08:08;11.40;;;9.78;;
10717;SDS011;13513;42.700;23.124;2023-07-16T00:10:36;10.95;;;9.85;;
10717;SDS011;13513;42.700;23.124;2023-07-16T00:13:03;14.30;;;9.85;;
10717;SDS011;13513;42.700;23.124;2023-07-16T00:15:31;13.62;;;9.85;;
10717;SDS011;13513;42.700;23.124;2023-07-16T00:17:58;11.83;;;9.85;;
10717;SDS011;13513;42.700;23.124;2023-07-16T00:20:26;12.53;;;9.93;;
10717;SDS011;13513;42.700;23.124;2023-07-16T00:22:53;11.08;;;9.55;;
10717;SDS011;13513;42.700;23.124;2023-07-16T00:25:22;12.00;;;10.15;;
10717;SDS011;13513;42.700;23.124;2023-07-16T00:27:50;12.93;;;9.63;;
10717;SDS011;13513;42.700;23.124;2023-07-16T00:30:17;12.00;;;9.50;;
10717;SDS011;13513;42.700;23.124;2023-07-16T00:32:45;11.05;;;9.95;;
10717;SDS011;13513;42.700;23.124;2023-07-16T00:35:12;12.43;;;9.90;;
10717;SDS011;13513;42.700;23.124;2023-07-16T00:37:40;11.22;;;10.03;;
10717;SDS011;13513;42.700;23.124;2023-07-16T00:40:07;14.85;;;9.88;;
10717;SDS011;13513;42.700;23.124;2023-07-16T00:42:35;12.10;;;10.45;;
10717;SDS011;13513;42.700;23.124;2023-07-16T00:45:03;15.88;;;10.68;;
10717;SDS011;13513;42.700;23.124;2023-07-16T00:47:33;13.40;;;10.32;;
10717;SDS011;13513;42.700;23.124;2023-07-16T00:50:01;14.50;;;10.38;;
10717;SDS011;13513;42.700;23.124;2023-07-16T00:52:28;11.80;;;10.58;;
10717;SDS011;13513;42.700;23.124;2023-07-16T00:54:58;12.25;;;10.35;;
10717;SDS011;13513;42.700;23.124;2023-07-16T00:57:26;11.45;;;10.35;;
10717;SDS011;13513;42.700;23.124;2023-07-16T00:59:53;12.55;;;10.78;;
10717;SDS011;13513;42.700;23.124;2023-07-16T01:02:21;12.20;;;10.30;;
10717;SDS011;13513;42.700;23.124;2023-07-16T01:04:48;13.32;;;10.05;;
10717;SDS011;13513;42.700;23.124;2023-07-16T01:07:16;16.82;;;10.78;;
10717;SDS011;13513;42.700;23.124;2023-07-16T01:09:44;14.70;;;10.65;;
10717;SDS011;13513;42.700;23.124;2023-07-16T01:12:12;12.07;;;10.78;;
10717;SDS011;13513;42.700;23.124;2023-07-16T01:14:41;11.75;;;10.65;;
10717;SDS011;13513;42.700;23.124;2023-07-16T01:17:08;14.00;;;10.50;;
10717;SDS011;13513;42.700;23.124;2023-07-16T01:19:36;12.03;;;10.63;;
10717;SDS011;13513;42.700;23.124;2023-07-16T01:30:01;12.63;;;11.33;;
10717;SDS011;13513;42.700;23.124;2023-07-16T01:32:30;12.45;;;10.78;;
10717;SDS011;13513;42.700;23.124;2023-07-16T01:34:59;15.43;;;11.97;;
10717;SDS011;13513;42.700;23.124;2023-07-16T01:37:28;16.23;;;10.82;;
10717;SDS011;13513;42.700;23.124;2023-07-16T01:39:56;13.13;;;11.73;;
10717;SDS011;13513;42.700;23.124;2023-07-16T01:42:24;12.68;;;11.22;;
10717;SDS011;13513;42.700;23.124;2023-07-16T01:44:51;14.70;;;12.05;;
10717;SDS011;13513;42.700;23.124;2023-07-16T01:49:58;15.18;;;11.78;;
10717;SDS011;13513;42.700;23.124;2023-07-16T01:52:26;13.72;;;12.10;;
10717;SDS011;13513;42.700;23.124;2023-07-16T01:54:53;15.15;;;11.43;;
10717;SDS011;13513;42.700;23.124;2023-07-16T01:57:21;12.50;;;11.20;;
10717;SDS011;13513;42.700;23.124;2023-07-16T01:59:48;12.98;;;11.68;;
10717;SDS011;13513;42.700;23.124;2023-07-16T02:02:16;12.68;;;11.03;;
10717;SDS011;13513;42.700;23.124;2023-07-16T02:04:43;14.95;;;12.10;;
10717;SDS011;13513;42.700;23.124;2023-07-16T02:07:10;14.73;;;12.05;;
10717;SDS011;13513;42.700;23.124;2023-07-16T02:09:38;14.38;;;11.80;;
10717;SDS011;13513;42.700;23.124;2023-07-16T02:12:06;15.75;;;12.98;;
10717;SDS011;13513;42.700;23.124;2023-07-16T02:14:33;14.93;;;11.70;;
10717;SDS011;13513;42.700;23.124;2023-07-16T02:17:01;17.85;;;12.03;;
10717;SDS011;13513;42.700;23.124;2023-07-16T02:19:28;15.98;;;12.00;;
10717;SDS011;13513;42.700;23.124;2023-07-16T02:21:56;15.38;;;11.80;;
10717;SDS011;13513;42.700;23.124;2023-07-16T02:24:23;13.20;;;11.68;;
10717;SDS011;13513;42.700;23.124;2023-07-16T02:26:51;15.43;;;12.37;;
10717;SDS011;13513;42.700;23.124;2023-07-16T02:29:18;16.32;;;12.33;;
10717;SDS011;13513;42.700;23.124;2023-07-16T02:31:46;16.87;;;12.47;;
10717;SDS011;13513;42.700;23.124;2023-07-16T02:34:14;17.00;;;12.55;;
10717;SDS011;13513;42.700;23.124;2023-07-16T02:36:41;14.35;;;12.30;;
10717;SDS011;13513;42.700;23.124;2023-07-16T02:39:09;15.30;;;12.35;;
10717;SDS011;13513;42.700;23.124;2023-07-16T02:41:36;14.47;;;11.83;;
10717;SDS011;13513;42.700;23.124;2023-07-16T02:44:04;16.32;;;12.43;;
10717;SDS011;13513;42.700;23.124;2023-07-16T02:46:32;13.70;;;12.30;;
10717;SDS011;13513;42.700;23.124;2023-07-16T02:49:01;17.07;;;13.00;;
10717;SDS011;13513;42.700;23.124;2023-07-16T02:51:30;14.43;;;12.20;;
10717;SDS011;13513;42.700;23.124;2023-07-16T02:53:57;13.83;;;12.37;;
10717;SDS011;13513;42.700;23.124;2023-07-16T02:56:25;13.60;;;11.65;;
10717;SDS011;13513;42.700;23.124;2023-07-16T02:58:52;17.00;;;12.78;;
10717;SDS011;13513;42.700;23.124;2023-07-16T03:01:20;18.98;;;12.10;;
10717;SDS011;13513;42.700;23.124;2023-07-16T03:03:47;13.40;;;12.05;;
10717;SDS011;13513;42.700;23.124;2023-07-16T03:06:15;15.70;;;12.43;;
10717;SDS011;13513;42.700;23.124;2023-07-16T03:08:42;14.23;;;12.80;;
10717;SDS011;13513;42.700;23.124;2023-07-16T03:11:11;18.67;;;12.88;;
10717;SDS011;13513;42.700;23.124;2023-07-16T03:13:38;16.32;;;12.25;;
10717;SDS011;13513;42.700;23.124;2023-07-16T03:16:06;14.18;;;12.68;;
10717;SDS011;13513;42.700;23.124;2023-07-16T03:18:33;14.10;;;11.97;;
10717;SDS011;13513;42.700;23.124;2023-07-16T03:21:01;20.72;;;12.90;;
10717;SDS011;13513;42.700;23.124;2023-07-16T03:23:28;15.68;;;11.90;;
10717;SDS011;13513;42.700;23.124;2023-07-16T03:25:56;13.90;;;12.20;;
10717;SDS011;13513;42.700;23.124;2023-07-16T03:28:24;16.60;;;13.10;;
10717;SDS011;13513;42.700;23.124;2023-07-16T03:30:52;14.65;;;11.93;;
10717;SDS011;13513;42.700;23.124;2023-07-16T03:33:19;17.23;;;11.48;;
10717;SDS011;13513;42.700;23.124;2023-07-16T03:35:48;17.42;;;11.40;;
10717;SDS011;13513;42.700;23.124;2023-07-16T03:38:16;18.23;;;11.20;;
10717;SDS011;13513;42.700;23.124;2023-07-16T03:40:48;14.50;;;11.78;;
10717;SDS011;13513;42.700;23.124;2023-07-16T03:43:16;20.23;;;11.97;;
10717;SDS011;13513;42.700;23.124;2023-07-16T03:45:44;13.28;;;11.08;;
10717;SDS011;13513;42.700;23.124;2023-07-16T03:48:14;15.05;;;11.03;;
10717;SDS011;13513;42.700;23.124;2023-07-16T03:50:41;13.35;;;10.78;;
10717;SDS011;13513;42.700;23.124;2023-07-16T03:53:10;13.50;;;10.75;;
10717;SDS011;13513;42.700;23.124;2023-07-16T03:55:37;13.60;;;10.78;;
10717;SDS011;13513;42.700;23.124;2023-07-16T03:58:05;18.32;;;11.38;;
10717;SDS011;13513;42.700;23.124;2023-07-16T04:00:32;17.85;;;11.08;;
10717;SDS011;13513;42.700;23.124;2023-07-16T04:03:00;14.38;;;11.57;;
10717;SDS011;13513;42.700;23.124;2023-07-16T04:05:27;13.62;;;11.73;;
10717;SDS011;13513;42.700;23.124;2023-07-16T04:07:55;12.65;;;11.35;;
10717;SDS011;13513;42.700;23.124;2023-07-16T04:10:22;11.40;;;10.25;;
10717;SDS011;13513;42.700;23.124;2023-07-16T04:12:50;11.55;;;10.38;;
10717;SDS011;13513;42.700;23.124;2023-07-16T04:15:17;25.35;;;10.95;;
10717;SDS011;13513;42.700;23.124;2023-07-16T04:17:45;15.85;;;10.60;;
10717;SDS011;13513;42.700;23.124;2023-07-16T04:20:12;11.20;;;10.10;;
10717;SDS011;13513;42.700;23.124;2023-07-16T04:22:40;15.28;;;9.23;;
10717;SDS011;13513;42.700;23.124;2023-07-16T04:25:07;8.70;;;7.72;;
10717;SDS011;13513;42.700;23.124;2023-07-16T04:27:37;8.35;;;7.10;;
10717;SDS011;13513;42.700;23.124;2023-07-16T04:30:06;11.38;;;6.80;;
10717;SDS011;13513;42.700;23.124;2023-07-16T04:32:34;12.13;;;6.62;;
10717;SDS011;13513;42.700;23.124;2023-07-16T04:35:02;10.80;;;6.45;;
10717;SDS011;13513;42.700;23.124;2023-07-16T04:37:34;13.35;;;7.20;;
10717;SDS011;13513;42.700;23.124;2023-07-16T04:39:58;9.63;;;6.72;;
10717;SDS011;13513;42.700;23.124;2023-07-16T04:42:26;8.80;;;6.12;;
10717;SDS011;13513;42.700;23.124;2023-07-16T04:44:53;11.65;;;8.05;;
10717;SDS011;13513;42.700;23.124;2023-07-16T04:47:21;14.58;;;8.73;;
10717;SDS011;13513;42.700;23.124;2023-07-16T04:49:48;17.55;;;8.68;;
10717;SDS011;13513;42.700;23.124;2023-07-16T04:52:16;10.13;;;7.22;;
10717;SDS011;13513;42.700;23.124;2023-07-16T04:54:43;12.78;;;8.08;;
10717;SDS011;13513;42.700;23.124;2023-07-16T04:57:10;10.35;;;7.80;;
10717;SDS011;13513;42.700;23.124;2023-07-16T04:59:38;8.58;;;7.67;;
10717;SDS011;13513;42.700;23.124;2023-07-16T05:02:05;9.15;;;7.35;;
10717;SDS011;13513;42.700;23.124;2023-07-16T05:04:33;9.43;;;7.28;;
10717;SDS011;13513;42.700;23.124;2023-07-16T05:07:02;10.63;;;7.22;;
10717;SDS011;13513;42.700;23.124;2023-07-16T05:09:29;8.35;;;7.12;;
10717;SDS011;13513;42.700;23.124;2023-07-16T05:11:57;8.00;;;7.20;;
10717;SDS011;13513;42.700;23.124;2023-07-16T05:14:25;9.68;;;6.87;;
10717;SDS011;13513;42.700;23.124;2023-07-16T05:16:54;9.93;;;7.75;;
10717;SDS011;13513;42.700;23.124;2023-07-16T05:19:22;10.15;;;7.17;;
10717;SDS011;13513;42.700;23.124;2023-07-16T05:21:50;8.68;;;6.72;;
10717;SDS011;13513;42.700;23.124;2023-07-16T05:24:17;8.23;;;6.67;;
10717;SDS011;13513;42.700;23.124;2023-07-16T05:26:45;10.40;;;6.40;;
10717;SDS011;13513;42.700;23.124;2023-07-16T05:29:13;7.25;;;6.50;;
10717;SDS011;13513;42.700;23.124;2023-07-16T05:31:41;7.80;;;6.47;;
10717;SDS011;13513;42.700;23.124;2023-07-16T05:34:11;8.88;;;6.47;;
10717;SDS011;13513;42.700;23.124;2023-07-16T05:36:40;8.33;;;6.28;;
10717;SDS011;13513;42.700;23.124;2023-07-16T05:39:10;9.88;;;6.87;;
10717;SDS011;13513;42.700;23.124;2023-07-16T05:41:41;11.90;;;6.65;;
10717;SDS011;13513;42.700;23.124;2023-07-16T05:44:09;11.97;;;7.10;;
10717;SDS011;13513;42.700;23.124;2023-07-16T05:46:37;9.80;;;6.85;;
10717;SDS011;13513;42.700;23.124;2023-07-16T05:49:04;12.15;;;6.75;;
10717;SDS011;13513;42.700;23.124;2023-07-16T05:51:32;8.60;;;6.80;;
10717;SDS011;13513;42.700;23.124;2023-07-16T05:53:59;9.38;;;6.47;;
10717;SDS011;13513;42.700;23.124;2023-07-16T05:56:27;7.37;;;6.58;;
10717;SDS011;13513;42.700;23.124;2023-07-16T05:58:54;9.58;;;6.92;;
10717;SDS011;13513;42.700;23.124;2023-07-16T06:01:22;10.85;;;6.67;;
10717;SDS011;13513;42.700;23.124;2023-07-16T06:03:49;8.40;;;7.05;;
10717;SDS011;13513;42.700;23.124;2023-07-16T06:06:16;8.05;;;6.87;;
10717;SDS011;13513;42.700;23.124;2023-07-16T06:08:44;8.95;;;6.97;;
10717;SDS011;13513;42.700;23.124;2023-07-16T06:11:12;8.20;;;6.65;;
10717;SDS011;13513;42.700;23.124;2023-07-16T06:13:39;9.23;;;6.42;;
10717;SDS011;13513;42.700;23.124;2023-07-16T06:16:07;12.70;;;7.67;;
10717;SDS011;13513;42.700;23.124;2023-07-16T06:18:34;8.38;;;6.92;;
10717;SDS011;13513;42.700;23.124;2023-07-16T06:21:01;10.18;;;6.70;;
10717;SDS011;13513;42.700;23.124;2023-07-16T06:23:29;8.10;;;6.37;;
10717;SDS011;13513;42.700;23.124;2023-07-16T06:25:57;8.05;;;7.05;;
10717;SDS011;13513;42.700;23.124;2023-07-16T06:28:24;13.18;;;7.85;;
10717;SDS011;13513;42.700;23.124;2023-07-16T06:30:54;9.53;;;7.37;;
10717;SDS011;13513;42.700;23.124;2023-07-16T06:33:22;8.53;;;7.53;;
10717;SDS011;13513;42.700;23.124;2023-07-16T06:35:51;8.40;;;6.67;;
10717;SDS011;13513;42.700;23.124;2023-07-16T06:38:18;11.50;;;7.08;;
10717;SDS011;13513;42.700;23.124;2023-07-16T06:40:46;9.25;;;6.75;;
10717;SDS011;13513;42.700;23.124;2023-07-16T06:43:15;9.03;;;7.20;;
10717;SDS011;13513;42.700;23.124;2023-07-16T06:45:43;7.67;;;6.50;;
10717;SDS011;13513;42.700;23.124;2023-07-16T06:48:10;9.65;;;7.62;;
10717;SDS011;13513;42.700;23.124;2023-07-16T06:50:38;8.88;;;6.60;;
10717;SDS011;13513;42.700;23.124;2023-07-16T06:53:05;11.30;;;6.87;;
10717;SDS011;13513;42.700;23.124;2023-07-16T06:55:33;8.13;;;7.17;;
10717;SDS011;13513;42.700;23.124;2023-07-16T06:58:00;15.08;;;6.80;;
10717;SDS011;13513;42.700;23.124;2023-07-16T07:00:28;15.18;;;6.72;;
10717;SDS011;13513;42.700;23.124;2023-07-16T07:02:56;10.05;;;6.47;;
10717;SDS011;13513;42.700;23.124;2023-07-16T07:05:23;7.75;;;7.00;;
10717;SDS011;13513;42.700;23.124;2023-07-16T07:07:51;7.65;;;6.72;;
10717;SDS011;13513;42.700;23.124;2023-07-16T07:10:18;14.53;;;7.50;;
10717;SDS011;13513;42.700;23.124;2023-07-16T07:12:47;12.40;;;7.17;;
10717;SDS011;13513;42.700;23.124;2023-07-16T07:15:15;9.45;;;6.65;;
10717;SDS011;13513;42.700;23.124;2023-07-16T07:17:42;9.58;;;7.00;;
10717;SDS011;13513;42.700;23.124;2023-07-16T07:20:12;15.50;;;6.80;;
10717;SDS011;13513;42.700;23.124;2023-07-16T07:22:40;11.70;;;6.83;;
10717;SDS011;13513;42.700;23.124;2023-07-16T07:25:07;10.65;;;6.53;;
10717;SDS011;13513;42.700;23.124;2023-07-16T07:27:35;11.95;;;7.55;;
10717;SDS011;13513;42.700;23.124;2023-07-16T07:30:02;11.20;;;6.40;;
10717;SDS011;13513;42.700;23.124;2023-07-16T07:32:30;14.98;;;7.42;;
10717;SDS011;13513;42.700;23.124;2023-07-16T07:34:57;13.13;;;6.83;;
10717;SDS011;13513;42.700;23.124;2023-07-16T07:37:24;16.42;;;7.33;;
10717;SDS011;13513;42.700;23.124;2023-07-16T07:39:52;11.33;;;7.58;;
10717;SDS011;13513;42.700;23.124;2023-07-16T07:42:19;8.23;;;7.28;;
10717;SDS011;13513;42.700;23.124;2023-07-16T07:44:47;10.72;;;7.22;;
10717;SDS011;13513;42.700;23.124;2023-07-16T07:47:14;10.95;;;7.53;;
10717;SDS011;13513;42.700;23.124;2023-07-16T07:49:42;10.65;;;7.60;;
10717;SDS011;13513;42.700;23.124;2023-07-16T07:52:09;9.75;;;7.00;;
10717;SDS011;13513;42.700;23.124;2023-07-16T07:54:37;7.75;;;6.75;;
10717;SDS011;13513;42.700;23.124;2023-07-16T07:57:04;12.25;;;7.15;;
10717;SDS011;13513;42.700;23.124;2023-07-16T07:59:32;7.78;;;6.53;;
10717;SDS011;13513;42.700;23.124;2023-07-16T08:01:59;8.78;;;6.60;;
10717;SDS011;13513;42.700;23.124;2023-07-16T08:04:28;8.23;;;6.75;;
10717;SDS011;13513;42.700;23.124;2023-07-16T08:06:57;8.63;;;6.70;;
10717;SDS011;13513;42.700;23.124;2023-07-16T08:09:25;8.50;;;6.28;;
10717;SDS011;13513;42.700;23.124;2023-07-16T08:11:53;12.40;;;6.50;;
10717;SDS011;13513;42.700;23.124;2023-07-16T08:14:20;11.50;;;7.08;;
10717;SDS011;13513;42.700;23.124;2023-07-16T08:16:48;12.73;;;6.67;;
10717;SDS011;13513;42.700;23.124;2023-07-16T08:19:15;8.75;;;6.75;;
10717;SDS011;13513;42.700;23.124;2023-07-16T08:21:43;10.43;;;6.45;;
10717;SDS011;13513;42.700;23.124;2023-07-16T08:24:10;13.78;;;7.03;;
10717;SDS011;13513;42.700;23.124;2023-07-16T08:26:38;13.48;;;7.37;;
10717;SDS011;13513;42.700;23.124;2023-07-16T08:29:05;12.88;;;6.72;;
10717;SDS011;13513;42.700;23.124;2023-07-16T08:31:33;11.63;;;6.90;;
10717;SDS011;13513;42.700;23.124;2023-07-16T08:34:00;7.30;;;6.60;;
10717;SDS011;13513;42.700;23.124;2023-07-16T08:36:27;10.38;;;7.05;;
10717;SDS011;13513;42.700;23.124;2023-07-16T08:38:55;12.43;;;6.87;;
10717;SDS011;13513;42.700;23.124;2023-07-16T08:41:22;8.75;;;6.80;;
10717;SDS011;13513;42.700;23.124;2023-07-16T08:43:50;9.13;;;6.75;;
10717;SDS011;13513;42.700;23.124;2023-07-16T08:46:18;11.50;;;7.78;;
10717;SDS011;13513;42.700;23.124;2023-07-16T08:48:46;9.83;;;7.30;;
10717;SDS011;13513;42.700;23.124;2023-07-16T08:51:14;10.50;;;6.78;;
10717;SDS011;13513;42.700;23.124;2023-07-16T08:53:42;9.53;;;7.05;;
10717;SDS011;13513;42.700;23.124;2023-07-16T08:56:10;11.97;;;7.78;;
10717;SDS011;13513;42.700;23.124;2023-07-16T08:58:37;11.30;;;7.72;;
10717;SDS011;13513;42.700;23.124;2023-07-16T09:01:07;11.30;;;7.35;;
10717;SDS011;13513;42.700;23.124;2023-07-16T09:03:35;12.90;;;7.53;;
10717;SDS011;13513;42.700;23.124;2023-07-16T09:06:03;9.48;;;7.37;;
10717;SDS011;13513;42.700;23.124;2023-07-16T09:08:31;9.53;;;7.53;;
10717;SDS011;13513;42.700;23.124;2023-07-16T09:10:59;9.45;;;7.95;;
10717;SDS011;13513;42.700;23.124;2023-07-16T09:13:26;11.93;;;7.15;;
10717;SDS011;13513;42.700;23.124;2023-07-16T09:15:56;12.70;;;7.80;;
10717;SDS011;13513;42.700;23.124;2023-07-16T09:18:25;9.93;;;8.25;;
10717;SDS011;13513;42.700;23.124;2023-07-16T09:20:57;11.38;;;7.80;;
10717;SDS011;13513;42.700;23.124;2023-07-16T09:23:29;12.73;;;7.92;;
10717;SDS011;13513;42.700;23.124;2023-07-16T09:25:57;11.22;;;8.03;;
10717;SDS011;13513;42.700;23.124;2023-07-16T09:28:25;15.23;;;8.43;;
10717;SDS011;13513;42.700;23.124;2023-07-16T09:30:52;9.43;;;8.43;;
10717;SDS011;13513;42.700;23.124;2023-07-16T09:33:20;9.83;;;7.75;;
10717;SDS011;13513;42.700;23.124;2023-07-16T09:35:51;9.83;;;7.92;;
10717;SDS011;13513;42.700;23.124;2023-07-16T09:38:18;11.03;;;8.15;;
10717;SDS011;13513;42.700;23.124;2023-07-16T09:40:47;14.35;;;8.40;;
10717;SDS011;13513;42.700;23.124;2023-07-16T09:43:14;12.30;;;8.08;;
10717;SDS011;13513;42.700;23.124;2023-07-16T09:45:42;9.73;;;8.15;;
10717;SDS011;13513;42.700;23.124;2023-07-16T09:48:10;10.25;;;7.60;;
10717;SDS011;13513;42.700;23.124;2023-07-16T09:50:37;17.67;;;9.25;;
10717;SDS011;13513;42.700;23.124;2023-07-16T09:53:07;10.30;;;8.75;;
10717;SDS011;13513;42.700;23.124;2023-07-16T09:55:35;12.40;;;8.03;;
10717;SDS011;13513;42.700;23.124;2023-07-16T09:58:06;8.98;;;8.15;;
10717;SDS011;13513;42.700;23.124;2023-07-16T10:00:34;11.38;;;7.55;;
10717;SDS011;13513;42.700;23.124;2023-07-16T10:03:05;10.72;;;8.45;;
10717;SDS011;13513;42.700;23.124;2023-07-16T10:05:36;11.88;;;7.92;;
10717;SDS011;13513;42.700;23.124;2023-07-16T10:08:04;15.45;;;9.93;;
10717;SDS011;13513;42.700;23.124;2023-07-16T10:10:38;26.75;;;18.37;;
10717;SDS011;13513;42.700;23.124;2023-07-16T10:13:07;15.85;;;10.72;;
10717;SDS011;13513;42.700;23.124;2023-07-16T10:15:36;17.40;;;9.80;;
10717;SDS011;13513;42.700;23.124;2023-07-16T10:18:04;11.55;;;8.60;;
10717;SDS011;13513;42.700;23.124;2023-07-16T10:20:32;13.08;;;7.67;;
10717;SDS011;13513;42.700;23.124;2023-07-16T10:23:11;10.80;;;8.00;;
10717;SDS011;13513;42.700;23.124;2023-07-16T10:25:40;15.20;;;8.63;;
10717;SDS011;13513;42.700;23.124;2023-07-16T10:28:09;15.53;;;8.98;;
10717;SDS011;13513;42.700;23.124;2023-07-16T10:30:36;14.90;;;8.38;;
10717;SDS011;13513;42.700;23.124;2023-07-16T10:33:10;13.93;;;8.38;;
10717;SDS011;13513;42.700;23.124;2023-07-16T10:35:42;11.33;;;8.43;;
10717;SDS011;13513;42.700;23.124;2023-07-16T10:38:12;14.45;;;8.90;;
10717;SDS011;13513;42.700;23.124;2023-07-16T10:40:40;15.00;;;9.05;;
10717;SDS011;13513;42.700;23.124;2023-07-16T10:43:08;11.40;;;8.58;;
10717;SDS011;13513;42.700;23.124;2023-07-16T10:45:36;13.08;;;7.97;;
10717;SDS011;13513;42.700;23.124;2023-07-16T10:48:04;12.25;;;8.23;;
10717;SDS011;13513;42.700;23.124;2023-07-16T10:50:33;17.67;;;8.23;;
10717;SDS011;13513;42.700;23.124;2023-07-16T10:53:01;13.45;;;7.95;;
10717;SDS011;13513;42.700;23.124;2023-07-16T10:55:29;12.05;;;7.55;;
10717;SDS011;13513;42.700;23.124;2023-07-16T10:58:03;14.10;;;8.20;;
10717;SDS011;13513;42.700;23.124;2023-07-16T11:00:36;14.33;;;8.25;;
10717;SDS011;13513;42.700;23.124;2023-07-16T11:03:05;11.88;;;8.93;;
10717;SDS011;13513;42.700;23.124;2023-07-16T11:05:34;13.85;;;7.78;;
10717;SDS011;13513;42.700;23.124;2023-07-16T11:08:02;12.60;;;8.85;;
10717;SDS011;13513;42.700;23.124;2023-07-16T11:10:29;11.50;;;8.10;;
10717;SDS011;13513;42.700;23.124;2023-07-16T11:12:57;10.30;;;7.25;;
10717;SDS011;13513;42.700;23.124;2023-07-16T11:15:30;10.70;;;7.08;;
10717;SDS011;13513;42.700;23.124;2023-07-16T11:18:01;13.38;;;7.97;;
10717;SDS011;13513;42.700;23.124;2023-07-16T11:20:29;15.03;;;7.35;;
10717;SDS011;13513;42.700;23.124;2023-07-16T11:22:58;10.70;;;7.50;;
10717;SDS011;13513;42.700;23.124;2023-07-16T11:25:26;9.83;;;6.87;;
10717;SDS011;13513;42.700;23.124;2023-07-16T11:27:54;11.85;;;7.60;;
10717;SDS011;13513;42.700;23.124;2023-07-16T11:30:24;12.00;;;7.05;;
10717;SDS011;13513;42.700;23.124;2023-07-16T11:32:54;10.98;;;6.97;;
10717;SDS011;13513;42.700;23.124;2023-07-16T11:35:23;12.10;;;7.12;;
10717;SDS011;13513;42.700;23.124;2023-07-16T11:37:50;12.00;;;6.47;;
10717;SDS011;13513;42.700;23.124;2023-07-16T11:40:18;12.68;;;7.33;;
10717;SDS011;13513;42.700;23.124;2023-07-16T11:42:47;11.80;;;6.75;;
10717;SDS011;13513;42.700;23.124;2023-07-16T11:45:19;16.65;;;7.03;;
10717;SDS011;13513;42.700;23.124;2023-07-16T11:47:48;12.28;;;6.75;;
10717;SDS011;13513;42.700;23.124;2023-07-16T11:50:16;13.03;;;7.00;;
10717;SDS011;13513;42.700;23.124;2023-07-16T11:52:51;11.95;;;7.03;;
10717;SDS011;13513;42.700;23.124;2023-07-16T11:55:23;8.60;;;6.40;;
10717;SDS011;13513;42.700;23.124;2023-07-16T11:57:50;14.78;;;6.55;;
10717;SDS011;13513;42.700;23.124;2023-07-16T12:00:18;8.78;;;5.95;;
10717;SDS011;13513;42.700;23.124;2023-07-16T12:02:45;9.40;;;6.28;;
10717;SDS011;13513;42.700;23.124;2023-07-16T12:05:14;9.85;;;6.60;;
10717;SDS011;13513;42.700;23.124;2023-07-16T12:07:42;11.95;;;6.47;;
10717;SDS011;13513;42.700;23.124;2023-07-16T12:10:09;10.60;;;6.25;;
10717;SDS011;13513;42.700;23.124;2023-07-16T12:12:36;8.33;;;6.55;;
10717;SDS011;13513;42.700;23.124;2023-07-16T12:15:05;6.37;;;5.53;;
10717;SDS011;13513;42.700;23.124;2023-07-16T12:17:33;9.88;;;6.00;;
10717;SDS011;13513;42.700;23.124;2023-07-16T12:20:01;7.42;;;5.87;;
10717;SDS011;13513;42.700;23.124;2023-07-16T12:22:29;7.40;;;5.40;;
10717;SDS011;13513;42.700;23.124;2023-07-16T12:24:57;6.40;;;5.78;;
10717;SDS011;13513;42.700;23.124;2023-07-16T12:27:25;9.28;;;5.75;;
10717;SDS011;13513;42.700;23.124;2023-07-16T12:29:52;8.13;;;6.30;;
10717;SDS011;13513;42.700;23.124;2023-07-16T12:32:20;8.95;;;6.05;;
10717;SDS011;13513;42.700;23.124;2023-07-16T12:34:47;8.55;;;6.45;;
10717;SDS011;13513;42.700;23.124;2023-07-16T12:37:14;6.62;;;5.80;;
10717;SDS011;13513;42.700;23.124;2023-07-16T12:39:42;9.23;;;6.60;;
10717;SDS011;13513;42.700;23.124;2023-07-16T12:42:09;12.78;;;6.15;;
10717;SDS011;13513;42.700;23.124;2023-07-16T12:44:37;9.95;;;6.17;;
10717;SDS011;13513;42.700;23.124;2023-07-16T12:47:04;11.40;;;6.25;;
10717;SDS011;13513;42.700;23.124;2023-07-16T12:49:34;9.83;;;5.60;;
10717;SDS011;13513;42.700;23.124;2023-07-16T12:52:01;6.80;;;5.72;;
10717;SDS011;13513;42.700;23.124;2023-07-16T12:54:29;11.33;;;6.12;;
10717;SDS011;13513;42.700;23.124;2023-07-16T12:56:57;10.80;;;6.33;;
10717;SDS011;13513;42.700;23.124;2023-07-16T12:59:24;8.70;;;6.58;;
10717;SDS011;13513;42.700;23.124;2023-07-16T13:01:52;9.50;;;6.42;;
10717;SDS011;13513;42.700;23.124;2023-07-16T13:04:19;12.28;;;6.45;;
10717;SDS011;13513;42.700;23.124;2023-07-16T13:06:47;13.18;;;6.10;;
10717;SDS011;13513;42.700;23.124;2023-07-16T13:09:14;10.28;;;6.42;;
10717;SDS011;13513;42.700;23.124;2023-07-16T13:11:42;10.08;;;6.87;;
10717;SDS011;13513;42.700;23.124;2023-07-16T13:14:10;11.78;;;6.62;;
10717;SDS011;13513;42.700;23.124;2023-07-16T13:16:37;11.90;;;6.65;;
10717;SDS011;13513;42.700;23.124;2023-07-16T13:19:04;7.37;;;6.25;;
10717;SDS011;13513;42.700;23.124;2023-07-16T13:21:32;9.70;;;6.00;;
10717;SDS011;13513;42.700;23.124;2023-07-16T13:23:59;7.58;;;6.05;;
10717;SDS011;13513;42.700;23.124;2023-07-16T13:26:27;12.63;;;6.50;;
10717;SDS011;13513;42.700;23.124;2023-07-16T13:28:55;8.48;;;5.97;;
10717;SDS011;13513;42.700;23.124;2023-07-16T13:31:22;10.05;;;6.25;;
10717;SDS011;13513;42.700;23.124;2023-07-16T13:33:49;9.68;;;6.03;;
10717;SDS011;13513;42.700;23.124;2023-07-16T13:36:17;8.43;;;6.10;;
10717;SDS011;13513;42.700;23.124;2023-07-16T13:38:44;7.83;;;5.85;;
10717;SDS011;13513;42.700;23.124;2023-07-16T13:41:12;12.50;;;6.50;;
10717;SDS011;13513;42.700;23.124;2023-07-16T13:43:39;15.83;;;6.22;;
10717;SDS011;13513;42.700;23.124;2023-07-16T13:46:06;11.03;;;6.15;;
10717;SDS011;13513;42.700;23.124;2023-07-16T13:48:34;6.90;;;5.67;;
10717;SDS011;13513;42.700;23.124;2023-07-16T13:51:01;9.13;;;6.00;;
10717;SDS011;13513;42.700;23.124;2023-07-16T13:53:29;9.23;;;6.30;;
10717;SDS011;13513;42.700;23.124;2023-07-16T13:55:56;10.58;;;5.85;;
10717;SDS011;13513;42.700;23.124;2023-07-16T13:58:24;10.90;;;6.40;;
10717;SDS011;13513;42.700;23.124;2023-07-16T14:00:51;9.83;;;6.12;;
10717;SDS011;13513;42.700;23.124;2023-07-16T14:03:19;8.98;;;6.10;;
10717;SDS011;13513;42.700;23.124;2023-07-16T14:05:46;8.35;;;6.45;;
10717;SDS011;13513;42.700;23.124;2023-07-16T14:08:13;9.20;;;6.08;;
10717;SDS011;13513;42.700;23.124;2023-07-16T14:10:41;7.40;;;5.78;;
10717;SDS011;13513;42.700;23.124;2023-07-16T14:13:08;8.88;;;6.30;;
10717;SDS011;13513;42.700;23.124;2023-07-16T14:15:36;12.58;;;6.20;;
10717;SDS011;13513;42.700;23.124;2023-07-16T14:18:04;10.78;;;6.10;;
10717;SDS011;13513;42.700;23.124;2023-07-16T14:20:31;8.65;;;5.80;;
10717;SDS011;13513;42.700;23.124;2023-07-16T14:22:59;8.35;;;6.00;;
10717;SDS011;13513;42.700;23.124;2023-07-16T14:25:29;12.28;;;6.17;;
10717;SDS011;13513;42.700;23.124;2023-07-16T14:27:56;8.68;;;6.25;;
10717;SDS011;13513;42.700;23.124;2023-07-16T14:30:23;7.37;;;6.03;;
10717;SDS011;13513;42.700;23.124;2023-07-16T14:32:51;9.58;;;6.25;;
10717;SDS011;13513;42.700;23.124;2023-07-16T14:35:18;8.95;;;6.00;;
10717;SDS011;13513;42.700;23.124;2023-07-16T14:37:46;11.88;;;6.95;;